Anchorage, Alaska
Current Conditions -  °F | °C
As of 1:53 AM on Saturday 25 Oct 2014 (Local Time) from PANC Reporting Station
Overcast Overcast  
Wind Chill: 31°   Ceiling: 5000
Heat Index: 31°   Visibility: 10mi
Dew Point: 26°   Wind: 0mph
Humidity: 82%   Direction: NA
Pressure: 29.91"   Gusts: NA
Location:  61.16°N, 150.01°W
Report Text: PANC 250953Z 00000KT 10SM SCT031 BKN050 OVC120 M01/M03 A2991 RMK AO2 SLP130 T10061033
Loading
Personal Weather Stations






























Interactive Weather Map New forecast layout! Learn more

10-Day Weather Forecast

Advertisements
Track Severe Weather on mobile